Time;durP1;ratioP1;P1;durP2;ratioP2;P2;SDS_P1;SDS_P2;PMS_P1;PMS_P2;Temp;Humidity;BMP_temperature;BMP_pressure;BME280_temperature;BME280_humidity;BME280_pressure;Samples;Min_cycle;Max_cycle;Signal;HPM_P1;HPM_P2
2022/05/27 00:01:14;;;;;;;;;1.00;1.00;;;;;17.91;50.05;101756.09;5093549;27;45554;-64
2022/05/27 00:03:40;;;;;;;;;2.33;2.33;;;;;17.94;49.94;101759.47;5078942;27;45561;-64
2022/05/27 00:06:06;;;;;;;;;1.00;1.00;;;;;17.98;50.18;101750.41;5072835;28;46215;-64
2022/05/27 00:08:31;;;;;;;;;1.33;0.33;;;;;18.07;50.08;101757.09;5074081;28;45438;-63
2022/05/27 00:10:59;;;;;;;;;2.00;2.00;;;;;18.05;50.34;101761.59;5076587;28;45501;-64
2022/05/27 00:13:25;;;;;;;;;1.67;1.67;;;;;18.01;50.15;101755.59;5090268;27;45525;-64
2022/05/27 00:15:50;;;;;;;;;1.00;1.00;;;;;18.04;50.15;101757.25;5094766;27;46231;-64
2022/05/27 00:18:16;;;;;;;;;1.00;1.00;;;;;18.07;50.28;101762.41;5075010;28;45479;-65
2022/05/27 00:20:41;;;;;;;;;1.00;1.00;;;;;18.01;50.18;101754.72;5076536;28;45413;-65
2022/05/27 00:23:07;;;;;;;;;1.00;1.00;;;;;17.94;50.28;101739.97;5076561;28;45551;-65
2022/05/27 00:25:33;;;;;;;;;1.00;1.00;;;;;17.95;50.58;101744.38;5076216;28;45542;-64
2022/05/27 00:27:59;;;;;;;;;1.00;1.00;;;;;17.96;50.54;101743.44;5084380;27;45562;-64
2022/05/27 00:30:26;;;;;;;;;1.00;1.00;;;;;18.01;50.46;101739.59;5096755;27;45491;-64
2022/05/27 00:32:53;;;;;;;;;2.00;1.00;;;;;18.02;50.41;101730.66;5096763;27;45592;-64
2022/05/27 00:35:18;;;;;;;;;0.00;0.00;;;;;17.95;50.87;101739.06;5095167;27;48119;-64
2022/05/27 00:37:44;;;;;;;;;1.00;1.00;;;;;17.98;50.75;101742.44;5096588;27;45481;-64
2022/05/27 00:40:11;;;;;;;;;0.67;0.67;;;;;18.02;50.81;101730.66;5095173;27;45509;-64
2022/05/27 00:42:41;;;;;;;;;1.00;1.00;;;;;18.07;51.06;101728.66;5087944;27;45552;-64
2022/05/27 00:45:15;;;;;;;;;1.00;1.00;;;;;18.03;51.03;101723.56;5074878;28;45514;-66
2022/05/27 00:47:42;;;;;;;;;0.00;0.00;;;;;18.02;51.02;101721.84;5075563;28;45559;-64
2022/05/27 00:50:11;;;;;;;;;0.33;0.33;;;;;17.97;51.32;101715.88;5076022;28;45426;-64
2022/05/27 00:52:38;;;;;;;;;1.00;1.00;;;;;17.95;51.40;101713.28;5081716;27;45522;-64
2022/05/27 00:55:08;;;;;;;;;0.33;0.33;;;;;17.93;51.46;101716.97;5096022;27;46606;-64
2022/05/27 00:57:40;;;;;;;;;2.00;1.00;;;;;17.91;51.93;101730.34;5096381;27;45508;-64
2022/05/27 01:00:16;;;;;;;;;1.00;1.00;;;;;17.84;51.77;101735.09;5096338;27;45420;-63
2022/05/27 01:02:41;;;;;;;;;1.00;1.00;;;;;17.82;51.61;101723.66;5096224;27;45484;-63
2022/05/27 01:05:10;;;;;;;;;1.00;1.00;;;;;17.84;52.08;101726.25;5096166;27;45608;-64
2022/05/27 01:07:36;;;;;;;;;1.00;1.00;;;;;17.77;52.29;101719.47;5093541;27;45788;-64
2022/05/27 01:10:04;;;;;;;;;1.00;1.00;;;;;17.82;52.34;101728.13;5094970;27;45521;-63
2022/05/27 01:12:48;;;;;;;;;0.33;0.33;;;;;17.79;52.44;101725.63;5095965;27;45775;-64
2022/05/27 01:15:35;;;;;;;;;1.00;1.00;;;;;17.80;52.45;101722.00;5095924;27;46192;-64
2022/05/27 01:18:18;;;;;;;;;3.00;3.00;;;;;17.69;52.42;101725.16;5095739;27;45468;-64
2022/05/27 01:21:02;;;;;;;;;1.00;1.00;;;;;17.66;52.53;101717.31;5088666;27;45545;-65
2022/05/27 01:23:45;;;;;;;;;2.00;2.00;;;;;17.60;52.88;101718.47;5075706;28;45534;-64
2022/05/27 01:26:20;;;;;;;;;3.00;1.00;;;;;17.59;53.32;101715.88;5075425;28;46219;-64
2022/05/27 01:29:08;;;;;;;;;1.67;1.67;;;;;17.62;52.96;101708.63;5075351;28;45442;-64
2022/05/27 01:31:50;;;;;;;;;1.00;1.00;;;;;17.60;53.13;101712.28;5075385;28;45415;-64
2022/05/27 01:34:29;;;;;;;;;1.00;1.00;;;;;17.58;53.23;101716.81;5075358;28;45449;-64
2022/05/27 01:37:10;;;;;;;;;1.00;1.00;;;;;17.60;52.98;101715.81;5093535;27;45457;-64
2022/05/27 01:39:48;;;;;;;;;1.00;1.00;;;;;17.63;52.71;101705.00;5095815;27;45720;-64
2022/05/27 01:42:31;;;;;;;;;1.00;1.00;;;;;17.65;52.77;101710.25;5091879;27;45551;-64
2022/05/27 01:45:03;;;;;;;;;2.33;1.67;;;;;17.70;52.34;101708.22;5075326;28;45464;-64
2022/05/27 01:47:59;;;;;;;;;3.00;1.00;;;;;17.63;52.46;101707.69;5074790;28;46223;-65
2022/05/27 01:50:34;;;;;;;;;0.33;0.33;;;;;17.62;53.08;101705.06;5077480;27;45470;-65
2022/05/27 01:53:21;;;;;;;;;2.00;1.00;;;;;17.61;53.10;101706.88;5092724;27;45469;-65
2022/05/27 01:56:12;;;;;;;;;1.00;1.00;;;;;17.52;53.28;101712.66;5095496;27;45557;-64
2022/05/27 01:58:52;;;;;;;;;1.33;1.33;;;;;17.43;53.11;101708.59;5095464;27;45494;-64
2022/05/27 02:01:26;;;;;;;;;1.00;1.00;;;;;17.44;53.13;101707.66;5093996;27;45573;-65
2022/05/27 02:04:06;;;;;;;;;3.00;2.00;;;;;17.40;52.87;101708.72;5095550;27;45642;-64
2022/05/27 02:06:44;;;;;;;;;2.67;1.00;;;;;17.34;53.58;101709.03;5095358;27;45400;-64
2022/05/27 02:09:31;;;;;;;;;1.00;1.00;;;;;17.33;53.01;101706.41;5093588;27;46807;-64
2022/05/27 02:12:05;;;;;;;;;2.00;2.00;;;;;17.30;52.87;101710.13;5094918;27;45474;-64
2022/05/27 02:14:41;;;;;;;;;1.00;1.00;;;;;17.28;53.69;101700.47;5095423;27;45494;-65
2022/05/27 02:17:16;;;;;;;;;3.33;2.33;;;;;17.23;53.39;101706.84;5095093;27;45458;-64
2022/05/27 02:19:54;;;;;;;;;3.67;2.00;;;;;17.28;53.80;101708.47;5082094;27;45411;-64
2022/05/27 02:22:25;;;;;;;;;1.00;1.00;;;;;17.25;53.08;101711.22;5074690;28;45571;-64
2022/05/27 02:25:02;;;;;;;;;3.00;2.00;;;;;17.18;53.31;101708.00;5074727;28;45478;-64
2022/05/27 02:27:38;;;;;;;;;4.33;4.00;;;;;17.19;53.48;101710.59;5074811;28;45448;-64
2022/05/27 02:30:11;;;;;;;;;2.00;2.00;;;;;17.28;53.63;101706.66;5074291;28;45537;-64
2022/05/27 02:32:48;;;;;;;;;2.00;2.00;;;;;17.25;53.68;101695.28;5080261;27;45483;-64
2022/05/27 02:35:23;;;;;;;;;3.67;3.67;;;;;17.24;53.16;101710.38;5094968;27;45615;-65
2022/05/27 02:37:55;;;;;;;;;3.00;3.00;;;;;17.25;53.26;101693.50;5093560;27;45650;-64
2022/05/27 02:40:24;;;;;;;;;2.00;2.00;;;;;17.27;53.61;101710.22;5094560;27;45493;-64
2022/05/27 02:43:08;;;;;;;;;3.00;3.00;;;;;17.25;53.91;101701.47;5094622;27;45500;-64
2022/05/27 02:45:44;;;;;;;;;1.33;1.33;;;;;17.26;53.67;101716.50;5094459;27;45484;-65
2022/05/27 02:48:42;;;;;;;;;1.33;1.33;;;;;17.26;53.52;101716.50;5080597;27;45455;-65
2022/05/27 02:51:36;;;;;;;;;3.00;3.00;;;;;17.26;53.61;101705.84;5073400;28;45589;-64
2022/05/27 02:54:01;;;;;;;;;2.00;2.00;;;;;17.27;53.86;101712.88;5074446;28;45542;-64
2022/05/27 02:56:33;;;;;;;;;1.00;1.00;;;;;17.26;54.00;101705.00;5074362;28;45485;-64
2022/05/27 02:58:58;;;;;;;;;2.00;2.00;;;;;17.21;53.70;101714.03;5074631;27;45463;-64
2022/05/27 03:01:23;;;;;;;;;4.00;2.67;;;;;17.17;54.00;101706.28;5073886;28;45677;-64
2022/05/27 03:03:49;;;;;;;;;3.67;2.33;;;;;17.13;54.71;101707.34;5074074;28;45545;-64
2022/05/27 03:06:21;;;;;;;;;1.00;1.00;;;;;17.13;54.28;101713.50;5072814;28;45450;-64
2022/05/27 03:08:59;;;;;;;;;2.00;2.00;;;;;17.13;54.64;101704.69;5078139;27;45472;-64
2022/05/27 03:11:30;;;;;;;;;2.67;2.00;;;;;17.15;54.42;101709.00;5094139;27;45662;-64
2022/05/27 03:14:14;;;;;;;;;3.33;2.33;;;;;17.18;53.85;101711.50;5094345;27;45467;-64
2022/05/27 03:16:55;;;;;;;;;3.00;3.00;;;;;17.14;53.96;101709.94;5094649;27;45505;-64
2022/05/27 03:19:38;;;;;;;;;3.00;3.00;;;;;17.12;54.25;101719.78;5087194;27;45460;-64
2022/05/27 03:22:15;;;;;;;;;3.00;3.00;;;;;17.07;54.47;101711.16;5093425;27;46485;-64
2022/05/27 03:24:43;;;;;;;;;3.00;3.00;;;;;17.12;53.71;101716.25;5094188;27;45496;-64
2022/05/27 03:27:36;;;;;;;;;2.00;2.00;;;;;17.04;53.74;101716.59;5092977;27;45455;-64
2022/05/27 03:30:18;;;;;;;;;4.67;2.00;;;;;17.02;53.54;101715.78;5076948;27;45534;-64
2022/05/27 03:32:58;;;;;;;;;3.00;3.00;;;;;16.97;54.34;101736.41;5073724;28;46204;-64
2022/05/27 03:35:30;;;;;;;;;2.67;2.67;;;;;16.86;53.74;101714.75;5073843;28;45498;-64
2022/05/27 03:38:12;;;;;;;;;3.00;3.00;;;;;16.77;53.95;101716.88;5073745;28;45578;-63
2022/05/27 03:41:07;;;;;;;;;2.33;2.33;;;;;16.73;54.74;101720.56;5086403;27;45656;-64
2022/05/27 03:43:35;;;;;;;;;2.67;2.67;;;;;16.75;54.10;101701.91;5067712;27;45562;-63
2022/05/27 03:46:01;;;;;;;;;3.33;3.33;;;;;16.75;54.53;101707.22;5097252;27;45560;-63
2022/05/27 03:48:30;;;;;;;;;2.00;2.00;;;;;16.72;54.49;101710.88;5094508;27;45521;-63
2022/05/27 03:51:10;;;;;;;;;3.00;3.00;;;;;16.76;54.36;101703.63;5077033;28;45563;-63
2022/05/27 03:56:19;;;;;;;;;4.00;2.33;;;;;16.82;53.91;101708.72;5077175;28;45602;-63
2022/05/27 03:58:44;;;;;;;;;3.67;3.67;;;;;16.84;54.92;101716.59;5081279;27;45495;-63
2022/05/27 04:01:09;;;;;;;;;4.00;2.67;;;;;16.84;54.48;101706.84;5077252;27;45683;-64
2022/05/27 04:03:35;;;;;;;;;2.67;2.00;;;;;16.86;54.15;101709.44;5076594;28;45863;-64
2022/05/27 04:06:00;;;;;;;;;3.33;3.33;;;;;16.91;54.29;101716.28;5076877;28;45463;-64
2022/05/27 04:08:26;;;;;;;;;3.00;3.00;;;;;16.93;53.94;101709.09;5078224;27;45514;-64
2022/05/27 04:10:51;;;;;;;;;2.67;2.67;;;;;16.82;54.30;101708.72;5097259;27;45415;-64
2022/05/27 04:13:16;;;;;;;;;2.00;2.00;;;;;16.77;55.15;101708.91;5095637;27;47189;-64
2022/05/27 04:15:42;;;;;;;;;2.00;2.00;;;;;16.83;54.50;101707.78;5097190;27;45426;-64
2022/05/27 04:18:08;;;;;;;;;2.00;2.00;;;;;16.96;54.67;101727.56;5087305;27;45516;-64
2022/05/27 04:20:33;;;;;;;;;3.00;3.00;;;;;16.94;54.82;101728.56;5099472;27;45586;-64
2022/05/27 04:22:59;;;;;;;;;3.00;3.00;;;;;16.98;54.56;101724.84;5087337;27;45629;-64
2022/05/27 04:25:24;;;;;;;;;6.33;4.00;;;;;16.99;54.40;101730.09;5077408;27;45442;-64
2022/05/27 04:27:50;;;;;;;;;2.00;2.00;;;;;16.98;54.28;101731.03;5077066;28;45539;-64
2022/05/27 04:30:16;;;;;;;;;3.00;3.00;;;;;16.98;54.91;101733.69;5081092;27;45537;-64
2022/05/27 04:32:42;;;;;;;;;3.67;3.33;;;;;16.92;54.51;101733.94;5097295;27;45513;-64
2022/05/27 04:35:09;;;;;;;;;3.00;3.00;;;;;16.87;54.74;101733.28;5097353;27;45429;-64
2022/05/27 04:37:35;;;;;;;;;4.67;3.00;;;;;16.83;55.16;101721.06;5097452;27;45449;-64
2022/05/27 04:40:01;;;;;;;;;3.00;3.00;;;;;16.89;55.56;101727.91;5095191;27;45644;-64
2022/05/27 04:42:28;;;;;;;;;4.00;4.00;;;;;16.94;55.06;101728.56;5076610;27;46583;-64
2022/05/27 04:44:54;;;;;;;;;3.00;2.00;;;;;16.92;55.26;101727.75;5076894;27;45528;-64
2022/05/27 04:47:19;;;;;;;;;5.00;5.00;;;;;16.92;54.55;101723.31;5093952;27;45649;-64
2022/05/27 04:49:51;;;;;;;;;3.67;3.67;;;;;16.97;55.12;101728.41;5097425;27;45614;-64
2022/05/27 04:52:27;;;;;;;;;3.00;3.00;;;;;16.96;54.87;101724.91;5097263;27;45543;-64
2022/05/27 04:54:53;;;;;;;;;5.33;5.00;;;;;16.92;55.22;101728.63;5095740;27;45481;-64
2022/05/27 04:57:26;;;;;;;;;6.33;6.33;;;;;16.91;54.74;101731.34;5081133;27;45415;-64
2022/05/27 04:59:52;;;;;;;;;7.00;7.00;;;;;16.88;54.98;101732.34;5096762;27;45422;-64
2022/05/27 05:02:23;;;;;;;;;8.00;6.00;;;;;16.90;55.06;101735.81;5100073;27;45471;-64
2022/05/27 05:04:49;;;;;;;;;7.00;5.33;;;;;16.88;54.82;101723.53;5074888;28;45512;-64
2022/05/27 05:07:15;;;;;;;;;5.00;4.00;;;;;16.91;55.24;101726.03;5076027;28;45576;-64
2022/05/27 05:09:42;;;;;;;;;6.00;6.00;;;;;16.90;55.28;101718.97;5079758;27;45478;-64
2022/05/27 05:12:09;;;;;;;;;5.33;5.33;;;;;16.77;55.50;101724.00;5096308;27;46557;-64
2022/05/27 05:14:35;;;;;;;;;5.67;5.67;;;;;16.84;55.22;101730.75;5083250;27;45509;-63
2022/05/27 05:17:01;;;;;;;;;8.00;7.00;;;;;16.87;55.40;101738.59;5076218;27;45474;-64
2022/05/27 05:19:26;;;;;;;;;7.67;7.00;;;;;16.97;55.64;101729.28;5076200;27;45504;-65
2022/05/27 05:21:52;;;;;;;;;6.33;5.33;;;;;16.91;55.30;101732.22;5074895;27;45516;-65
2022/05/27 05:24:17;;;;;;;;;6.00;6.00;;;;;16.92;55.93;101731.28;5076122;27;45538;-68
2022/05/27 05:26:43;;;;;;;;;3.67;3.67;;;;;16.87;55.87;101738.59;5087408;27;45506;-64
2022/05/27 05:29:08;;;;;;;;;5.00;5.00;;;;;16.82;56.15;101731.75;5083945;27;45721;-63
2022/05/27 05:31:34;;;;;;;;;8.00;7.33;;;;;16.76;56.66;101733.72;5089649;27;47585;-63
2022/05/27 05:34:00;;;;;;;;;13.33;9.00;;;;;16.63;56.94;101723.66;5083136;27;45521;-63
2022/05/27 05:36:30;;;;;;;;;9.67;9.67;;;;;16.71;56.09;101726.84;5082209;27;45633;-64
2022/05/27 05:38:56;;;;;;;;;7.33;7.33;;;;;16.81;56.26;101732.69;5084181;27;45406;-62
2022/05/27 05:41:31;;;;;;;;;10.00;9.00;;;;;16.77;56.37;101730.16;5074731;28;46062;-65
2022/05/27 05:43:56;;;;;;;;;10.00;10.00;;;;;16.78;56.44;101729.22;5086258;27;45573;-62
2022/05/27 05:46:23;;;;;;;;;13.33;12.33;;;;;16.71;56.70;101732.16;5095406;27;45443;-66
2022/05/27 05:48:49;;;;;;;;;12.67;12.67;;;;;16.65;56.86;101727.13;5095612;27;45487;-62
2022/05/27 05:51:14;;;;;;;;;16.67;15.33;;;;;16.66;57.33;101723.56;5078635;27;46375;-66
2022/05/27 05:53:39;;;;;;;;;13.67;11.33;;;;;16.71;56.51;101734.81;5073606;28;45583;-64
2022/05/27 05:56:05;;;;;;;;;11.33;11.33;;;;;16.81;56.74;101738.84;5075051;27;45787;-64
2022/05/27 05:58:30;;;;;;;;;16.67;16.33;;;;;16.74;56.32;101732.91;5087563;27;45461;-71
2022/05/27 06:00:58;;;;;;;;;14.67;14.67;;;;;16.80;56.06;101725.66;5089873;27;46446;-67
2022/05/27 06:03:24;;;;;;;;;12.67;12.67;;;;;16.82;56.81;101727.31;5087284;27;45458;-67
2022/05/27 06:05:50;;;;;;;;;16.33;14.67;;;;;16.88;56.46;101732.34;5078978;27;45545;-68
2022/05/27 06:08:17;;;;;;;;;9.00;9.00;;;;;16.88;56.65;101737.66;5089738;27;45550;-66
2022/05/27 06:10:42;;;;;;;;;14.00;12.33;;;;;16.90;56.89;101740.25;5089782;27;45514;-64
2022/05/27 06:13:08;;;;;;;;;12.00;8.00;;;;;16.91;56.90;101736.66;5092230;27;45602;-67
2022/05/27 06:15:34;;;;;;;;;8.00;8.00;;;;;16.94;56.32;101731.22;5094497;27;45489;-68
2022/05/27 06:18:04;;;;;;;;;6.00;6.00;;;;;16.97;57.47;101734.59;5073255;27;45454;-61
2022/05/27 06:20:29;;;;;;;;;6.67;6.00;;;;;16.97;56.24;101742.56;5077235;27;45568;-64
2022/05/27 06:22:55;;;;;;;;;3.67;3.67;;;;;16.99;57.26;101742.50;5081959;27;45604;-64
2022/05/27 06:25:20;;;;;;;;;3.00;3.00;;;;;16.99;56.93;101730.09;5073206;28;45466;-64
2022/05/27 06:27:46;;;;;;;;;2.33;2.33;;;;;17.02;56.89;101745.03;5074464;28;45498;-64
2022/05/27 06:35:42;;;;;;;;;4.00;3.00;;;;;16.87;57.53;101743.94;5074650;28;45498;-64
2022/05/27 06:38:07;;;;;;;;;4.33;3.00;;;;;16.85;57.70;101743.13;5074524;28;45439;-64
2022/05/27 06:40:33;;;;;;;;;2.67;2.67;;;;;16.76;57.07;101740.81;5074106;27;46488;-64
2022/05/27 06:42:58;;;;;;;;;2.00;2.00;;;;;16.87;58.13;101751.00;5072931;28;45815;-64
2022/05/27 06:45:24;;;;;;;;;3.00;3.00;;;;;16.85;57.76;101747.56;5074553;28;45494;-63
2022/05/27 06:47:50;;;;;;;;;4.00;4.00;;;;;16.85;58.50;101751.09;5074315;28;45482;-64
2022/05/27 06:50:15;;;;;;;;;3.67;3.67;;;;;16.88;58.59;101753.63;5074170;28;46280;-64
2022/05/27 06:52:41;;;;;;;;;5.33;5.33;;;;;16.89;58.48;101752.66;5074248;28;45469;-65
2022/05/27 06:55:08;;;;;;;;;4.00;4.00;;;;;16.85;58.35;101745.78;5074276;27;45451;-65
2022/05/27 06:57:34;;;;;;;;;2.33;2.33;;;;;16.85;58.71;101753.75;5074136;28;45625;-65
2022/05/27 07:00:00;;;;;;;;;4.33;4.33;;;;;16.62;58.10;101724.59;5074051;28;46267;-65
2022/05/27 07:02:25;;;;;;;;;4.67;4.67;;;;;16.81;58.66;101757.44;5074059;28;45490;-63
2022/05/27 07:04:51;;;;;;;;;5.00;5.00;;;;;16.77;58.51;101758.53;5074133;28;45504;-64
2022/05/27 07:07:16;;;;;;;;;7.67;5.67;;;;;16.77;57.90;101753.22;5073956;28;45733;-64
2022/05/27 07:09:42;;;;;;;;;6.00;6.00;;;;;16.76;57.84;101751.44;5073897;28;45516;-63
2022/05/27 07:12:09;;;;;;;;;5.00;4.00;;;;;16.72;58.74;101750.72;5073755;28;45521;-63
2022/05/27 07:14:36;;;;;;;;;5.00;5.00;;;;;16.73;58.85;101756.88;5074059;28;45448;-63
2022/05/27 07:17:02;;;;;;;;;7.00;6.00;;;;;16.75;58.65;101757.69;5073414;27;45567;-63
2022/05/27 07:19:28;;;;;;;;;8.67;8.67;;;;;16.72;58.11;101755.16;5075771;28;45564;-63
2022/05/27 07:21:56;;;;;;;;;11.00;11.00;;;;;16.71;59.16;101762.28;5076983;28;45434;-64
2022/05/27 07:24:22;;;;;;;;;10.67;8.67;;;;;16.70;58.81;101759.69;5077429;28;45441;-63
2022/05/27 07:26:48;;;;;;;;;13.33;10.67;;;;;16.74;58.73;101762.16;5077382;28;45501;-64
2022/05/27 07:29:14;;;;;;;;;14.00;12.00;;;;;16.71;58.95;101754.31;5077179;28;45533;-64
2022/05/27 07:31:41;;;;;;;;;12.00;11.00;;;;;16.75;58.57;101749.72;5075895;28;45522;-63
2022/05/27 07:34:07;;;;;;;;;12.67;12.67;;;;;16.90;58.92;101753.53;5077555;28;45569;-64
2022/05/27 07:36:33;;;;;;;;;10.67;9.33;;;;;16.90;58.64;101742.91;5076070;28;45713;-64
2022/05/27 07:38:58;;;;;;;;;10.00;10.00;;;;;16.96;58.36;101753.28;5076850;28;45517;-64
2022/05/27 07:41:26;;;;;;;;;8.00;8.00;;;;;17.06;58.81;101748.41;5075810;28;45498;-64
2022/05/27 07:43:53;;;;;;;;;11.67;10.00;;;;;17.21;57.88;101753.06;5076960;28;45412;-64
2022/05/27 07:46:21;;;;;;;;;9.00;8.00;;;;;17.31;57.75;101749.06;5076791;28;45604;-65
2022/05/27 07:48:46;;;;;;;;;10.33;10.33;;;;;17.39;57.61;101748.72;5076689;28;45516;-63
2022/05/27 07:51:12;;;;;;;;;9.00;8.33;;;;;17.48;57.11;101750.09;5076767;28;45543;-64
2022/05/27 07:53:38;;;;;;;;;9.67;8.67;;;;;17.52;57.00;101739.25;5076888;28;45492;-64
2022/05/27 07:56:06;;;;;;;;;8.00;8.00;;;;;17.58;56.94;101741.59;5076999;28;45493;-64
2022/05/27 07:58:31;;;;;;;;;8.00;8.00;;;;;17.60;56.54;101738.88;5076654;28;45500;-64
2022/05/27 08:00:57;;;;;;;;;9.00;6.67;;;;;17.67;56.31;101742.97;5076645;28;45829;-64
2022/05/27 08:03:22;;;;;;;;;7.00;7.00;;;;;17.67;56.44;101753.63;5076894;28;45451;-65
2022/05/27 08:05:47;;;;;;;;;6.00;6.00;;;;;17.72;56.20;101742.75;5077142;28;45550;-65
2022/05/27 08:08:13;;;;;;;;;7.00;7.00;;;;;17.80;56.32;101746.81;5076570;28;46367;-65
2022/05/27 08:10:40;;;;;;;;;7.00;6.00;;;;;17.81;56.38;101743.25;5076665;28;45492;-65
2022/05/27 08:13:06;;;;;;;;;6.33;5.67;;;;;17.85;55.88;101754.59;5076920;28;45526;-64
2022/05/27 08:15:32;;;;;;;;;6.67;6.00;;;;;17.82;56.14;101752.94;5075722;28;45505;-64
2022/05/27 08:17:58;;;;;;;;;12.00;7.00;;;;;17.83;56.40;101754.66;5076552;28;46167;-64
2022/05/27 08:20:28;;;;;;;;;6.67;6.00;;;;;17.85;56.23;101750.13;5076289;28;45497;-64
2022/05/27 08:22:54;;;;;;;;;7.67;7.67;;;;;17.85;56.15;101744.81;5076267;28;45449;-64
2022/05/27 08:25:21;;;;;;;;;9.00;9.00;;;;;17.91;56.21;101759.59;5076211;28;45462;-64
2022/05/27 08:27:47;;;;;;;;;6.00;6.00;;;;;17.96;55.99;101762.06;5076347;28;45517;-64
2022/05/27 08:30:16;;;;;;;;;5.67;5.67;;;;;17.94;56.09;101753.28;5076335;28;45533;-65
2022/05/27 08:32:41;;;;;;;;;5.00;4.33;;;;;17.95;56.00;101755.03;5076593;28;45476;-65
2022/05/27 08:38:01;;;;;;;;;7.00;5.33;;;;;17.80;56.61;101741.50;5075992;28;45476;-64
2022/05/27 08:41:04;;;;;;;;;5.67;5.67;;;;;17.86;56.39;101749.19;5074829;28;45493;-64
2022/05/27 08:43:50;;;;;;;;;7.00;6.33;;;;;17.87;56.51;101755.38;5074685;28;45517;-64
2022/05/27 08:46:15;;;;;;;;;6.33;6.33;;;;;17.87;56.62;101755.38;5075941;28;46057;-64
2022/05/27 08:48:45;;;;;;;;;5.67;5.67;;;;;17.86;57.00;101756.31;5075866;28;46337;-64
2022/05/27 08:51:27;;;;;;;;;7.00;5.00;;;;;17.85;56.93;101754.59;5075811;28;45423;-64
2022/05/27 08:54:02;;;;;;;;;3.33;3.00;;;;;17.86;57.27;101754.50;5076094;28;45521;-64
2022/05/27 08:59:27;;;;;;;;;4.67;4.67;;;;;17.85;56.90;101758.09;5075795;28;45454;-64
2022/05/27 09:01:57;;;;;;;;;5.00;5.00;;;;;17.81;57.37;101753.88;5075596;28;45473;-64
2022/05/27 09:04:37;;;;;;;;;4.33;4.33;;;;;17.80;57.76;101752.13;5075941;27;45523;-64
2022/05/27 09:07:21;;;;;;;;;5.67;5.00;;;;;17.79;57.69;101750.41;5075723;28;45499;-64
2022/05/27 09:09:47;;;;;;;;;7.33;5.00;;;;;17.82;57.91;101757.41;5075593;28;45465;-65
2022/05/27 09:12:40;;;;;;;;;4.00;4.00;;;;;17.84;58.12;101769.69;5075615;28;45453;-64
2022/05/27 09:15:28;;;;;;;;;6.00;5.00;;;;;17.87;57.83;101764.22;5075796;28;45557;-64
2022/05/27 09:18:03;;;;;;;;;6.33;5.33;;;;;17.93;57.72;101763.06;5075310;28;45579;-64
2022/05/27 09:20:34;;;;;;;;;6.00;4.00;;;;;17.99;57.95;101768.09;5075377;27;46413;-64
2022/05/27 09:23:02;;;;;;;;;3.00;3.00;;;;;17.98;57.70;101766.38;5075500;28;45575;-64
2022/05/27 09:25:52;;;;;;;;;5.00;5.00;;;;;17.98;58.12;101765.53;5075499;28;45549;-64
2022/05/27 09:28:41;;;;;;;;;5.00;4.00;;;;;17.84;58.12;101748.41;5075575;28;45565;-64
2022/05/27 09:31:08;;;;;;;;;5.00;5.00;;;;;17.94;58.02;101763.94;5075346;28;45779;-64
2022/05/27 09:33:36;;;;;;;;;4.00;4.00;;;;;17.92;58.10;101764.03;5073810;28;45487;-64
2022/05/27 09:36:15;;;;;;;;;4.33;4.33;;;;;17.92;58.62;101760.47;5075578;28;45442;-63
2022/05/27 09:38:57;;;;;;;;;6.00;4.67;;;;;17.93;58.36;101760.41;5075350;28;45501;-64
2022/05/27 09:41:36;;;;;;;;;6.33;5.00;;;;;18.00;58.33;101760.97;5072902;28;45544;-64
2022/05/27 09:44:30;;;;;;;;;5.67;4.00;;;;;17.96;58.92;101764.72;5074711;28;45532;-64
2022/05/27 09:46:56;;;;;;;;;5.00;4.00;;;;;17.96;58.89;101759.41;5073614;28;45598;-64
2022/05/27 09:49:21;;;;;;;;;4.00;4.00;;;;;18.00;58.37;101763.63;5075201;28;45490;-64
2022/05/27 09:51:47;;;;;;;;;11.00;6.33;;;;;17.99;58.46;101765.44;5074913;27;45591;-64
2022/05/27 09:54:12;;;;;;;;;5.00;4.00;;;;;18.04;58.53;101762.56;5074675;28;45431;-64
2022/05/27 09:56:53;;;;;;;;;5.67;4.67;;;;;18.08;59.22;101767.69;5074756;28;45506;-64
2022/05/27 09:59:18;;;;;;;;;4.67;4.67;;;;;18.08;58.93;101766.78;5075099;28;45527;-64
2022/05/27 10:01:44;;;;;;;;;4.00;4.00;;;;;18.08;59.86;101764.13;5074432;28;45566;-64
2022/05/27 10:04:14;;;;;;;;;7.00;6.00;;;;;18.12;60.14;101765.72;5074612;28;45416;-64
2022/05/27 10:06:40;;;;;;;;;5.67;4.67;;;;;18.15;59.70;101760.22;5074737;28;45469;-64
2022/05/27 10:09:11;;;;;;;;;4.33;4.00;;;;;18.24;59.21;101762.47;5074772;28;45455;-64
2022/05/27 10:11:52;;;;;;;;;3.33;3.33;;;;;18.27;59.45;101757.00;5074440;28;45578;-64
2022/05/27 10:14:17;;;;;;;;;5.33;5.33;;;;;18.30;59.33;101759.50;5074496;28;45502;-64
2022/05/27 10:17:10;;;;;;;;;7.33;4.33;;;;;18.36;59.19;101749.47;5074725;28;45525;-64
2022/05/27 10:19:38;;;;;;;;;5.67;5.67;;;;;18.40;59.36;101753.69;5074485;28;45441;-64
2022/05/27 10:22:09;;;;;;;;;4.33;4.33;;;;;18.47;59.24;101749.81;5074061;28;46251;-64
2022/05/27 10:24:41;;;;;;;;;4.33;4.33;;;;;18.52;59.12;101735.31;5074508;28;45521;-64
2022/05/27 10:27:14;;;;;;;;;4.00;4.00;;;;;18.58;58.71;101739.47;5074456;28;45474;-64
2022/05/27 10:29:58;;;;;;;;;4.67;4.00;;;;;18.66;58.49;101737.28;5074589;28;45503;-65
2022/05/27 10:32:40;;;;;;;;;4.00;4.00;;;;;18.75;58.06;101728.84;5074245;27;46660;-65
2022/05/27 10:35:09;;;;;;;;;3.33;3.33;;;;;18.87;57.76;101731.81;5072887;28;45511;-65
2022/05/27 10:37:37;;;;;;;;;4.67;3.33;;;;;18.91;57.09;101733.38;5074262;27;45486;-65
2022/05/27 10:40:24;;;;;;;;;3.00;3.00;;;;;18.98;57.79;101727.63;5074457;28;45479;-64
2022/05/27 10:43:13;;;;;;;;;4.33;3.00;;;;;19.09;56.98;101726.22;5074107;28;45486;-63
2022/05/27 10:45:43;;;;;;;;;11.33;11.33;;;;;19.19;56.96;101724.78;5073864;28;45424;-64
2022/05/27 10:48:21;;;;;;;;;5.00;5.00;;;;;19.33;57.04;101732.03;5074119;28;45470;-63
2022/05/27 10:51:20;;;;;;;;;3.00;3.00;;;;;19.39;55.90;101729.03;5074329;28;46124;-64
2022/05/27 10:54:19;;;;;;;;;2.00;2.00;;;;;19.39;55.96;101731.69;5072817;28;45607;-64
2022/05/27 11:02:04;;;;;;;;;3.00;3.00;;;;;19.36;55.40;101729.19;5073862;27;45977;-64
2022/05/27 11:02:44;;;;;;;;;3.33;3.33;;;;;19.43;55.98;101733.28;5074056;28;45494;-64
2022/05/27 11:05:42;;;;;;;;;5.00;4.00;;;;;19.44;55.58;101726.97;5073987;28;45913;-64
2022/05/27 11:08:10;;;;;;;;;3.33;3.33;;;;;19.43;55.26;101727.94;5073998;28;45466;-65
2022/05/27 11:10:46;;;;;;;;;3.00;3.00;;;;;19.37;55.65;101729.13;5074371;28;45454;-64
2022/05/27 11:16:34;;;;;;;;;5.67;3.00;;;;;19.43;55.41;101736.78;5081783;27;45520;-64
2022/05/27 11:19:18;;;;;;;;;4.00;4.00;;;;;19.37;55.38;101736.25;5094753;27;45382;-62
2022/05/27 11:22:02;;;;;;;;;3.00;3.00;;;;;19.35;55.60;101724.81;5092898;27;45482;-63
2022/05/27 11:24:48;;;;;;;;;2.67;2.67;;;;;19.36;55.98;101727.38;5095353;27;45467;-63
2022/05/27 11:28:01;;;;;;;;;3.00;3.00;;;;;19.37;55.75;101729.13;5085064;27;46402;-63
2022/05/27 11:30:37;;;;;;;;;4.00;4.00;;;;;19.36;55.58;101729.19;5041597;27;45660;-65
2022/05/27 11:33:06;;;;;;;;;3.00;3.00;;;;;19.30;55.83;101726.88;5073982;27;45980;-65
2022/05/27 11:35:51;;;;;;;;;6.33;6.33;;;;;19.22;56.34;101718.44;5074647;27;45448;-65
2022/05/27 11:38:22;;;;;;;;;5.00;5.00;;;;;19.22;56.02;101713.09;5042243;28;45567;-64
2022/05/27 11:41:07;;;;;;;;;4.00;4.00;;;;;19.27;56.37;101721.72;5073847;28;45526;-65
2022/05/27 11:43:38;;;;;;;;;4.00;4.00;;;;;19.29;56.34;101714.47;5074214;28;45478;-65
2022/05/27 11:46:24;;;;;;;;;5.33;5.00;;;;;19.31;55.87;101712.59;5073648;27;45486;-65
2022/05/27 11:48:59;;;;;;;;;3.33;3.00;;;;;19.27;56.24;101708.38;5073822;27;45514;-65
2022/05/27 11:51:27;;;;;;;;;4.00;4.00;;;;;19.26;56.30;101712.81;5073852;27;45488;-65
2022/05/27 11:54:08;;;;;;;;;3.67;3.67;;;;;19.22;56.22;101710.44;5073942;27;45392;-65
2022/05/27 11:57:01;;;;;;;;;4.00;4.00;;;;;19.28;55.91;101708.28;5072573;28;45487;-65
2022/05/27 11:59:40;;;;;;;;;4.00;4.00;;;;;19.31;56.13;101704.59;5071761;28;45611;-65
2022/05/27 12:02:16;;;;;;;;;5.67;3.67;;;;;19.30;55.89;101698.38;5071649;28;45481;-65
2022/05/27 12:04:54;;;;;;;;;6.00;4.67;;;;;19.41;55.96;101705.81;5074376;27;45540;-65
2022/05/27 12:07:29;;;;;;;;;4.00;4.00;;;;;19.47;55.40;101704.59;5076650;27;45533;-65